sensor_id;sensor_type;location;lat;lon;timestamp;pressure;altitude;pressure_sealevel;temperature;humidity
72892;BME280;61032;50.782;6.818;2024-02-26T00:00:35;98665.81;;;7.59;72.77
72892;BME280;61032;50.782;6.818;2024-02-26T00:01:36;98652.31;;;7.51;72.97
72892;BME280;61032;50.782;6.818;2024-02-26T00:02:37;98654.63;;;7.33;74.14
72892;BME280;61032;50.782;6.818;2024-02-26T00:03:38;98644.69;;;7.25;73.89
72892;BME280;61032;50.782;6.818;2024-02-26T00:04:39;98644.84;;;7.32;74.15
72892;BME280;61032;50.782;6.818;2024-02-26T00:05:39;98648.38;;;7.33;74.22
72892;BME280;61032;50.782;6.818;2024-02-26T00:06:39;98656.47;;;7.29;74.95
72892;BME280;61032;50.782;6.818;2024-02-26T00:07:43;98647.59;;;7.32;74.86
72892;BME280;61032;50.782;6.818;2024-02-26T00:08:44;98642.75;;;7.26;74.86
72892;BME280;61032;50.782;6.818;2024-02-26T00:09:45;98643.03;;;7.20;75.23
72892;BME280;61032;50.782;6.818;2024-02-26T00:10:45;98647.69;;;7.20;75.09
72892;BME280;61032;50.782;6.818;2024-02-26T00:11:45;98654.41;;;7.22;75.66
72892;BME280;61032;50.782;6.818;2024-02-26T00:12:48;98648.28;;;7.29;75.41
72892;BME280;61032;50.782;6.818;2024-02-26T00:13:48;98649.88;;;7.30;74.74
72892;BME280;61032;50.782;6.818;2024-02-26T00:14:48;98644.25;;;7.23;75.43
72892;BME280;61032;50.782;6.818;2024-02-26T00:15:49;98644.97;;;7.20;75.43
72892;BME280;61032;50.782;6.818;2024-02-26T00:16:50;98637.13;;;7.03;76.43
72892;BME280;61032;50.782;6.818;2024-02-26T00:17:50;98640.00;;;7.10;75.53
72892;BME280;61032;50.782;6.818;2024-02-26T00:18:50;98644.69;;;7.09;75.02
72892;BME280;61032;50.782;6.818;2024-02-26T00:19:51;98646.97;;;7.07;75.80
72892;BME280;61032;50.782;6.818;2024-02-26T00:20:51;98644.06;;;7.16;75.81
72892;BME280;61032;50.782;6.818;2024-02-26T00:21:52;98646.53;;;7.21;75.45
72892;BME280;61032;50.782;6.818;2024-02-26T00:22:53;98638.69;;;7.19;75.63
72892;BME280;61032;50.782;6.818;2024-02-26T00:23:57;98639.84;;;7.18;74.99
72892;BME280;61032;50.782;6.818;2024-02-26T00:24:57;98633.31;;;7.23;74.90
72892;BME280;61032;50.782;6.818;2024-02-26T00:25:58;98647.00;;;7.23;74.67
72892;BME280;61032;50.782;6.818;2024-02-26T00:26:59;98637.13;;;7.03;74.47
72892;BME280;61032;50.782;6.818;2024-02-26T00:27:59;98637.28;;;7.10;74.94
72892;BME280;61032;50.782;6.818;2024-02-26T00:29:00;98635.63;;;7.21;75.10
72892;BME280;61032;50.782;6.818;2024-02-26T00:30:00;98643.09;;;7.08;75.08
72892;BME280;61032;50.782;6.818;2024-02-26T00:31:00;98640.63;;;7.19;75.57
72892;BME280;61032;50.782;6.818;2024-02-26T00:32:01;98631.47;;;7.27;75.05
72892;BME280;61032;50.782;6.818;2024-02-26T00:33:01;98631.03;;;7.25;74.79
72892;BME280;61032;50.782;6.818;2024-02-26T00:34:01;98635.97;;;7.19;74.48
72892;BME280;61032;50.782;6.818;2024-02-26T00:35:02;98629.00;;;7.22;74.59
72892;BME280;61032;50.782;6.818;2024-02-26T00:36:03;98637.03;;;7.15;74.59
72892;BME280;61032;50.782;6.818;2024-02-26T00:37:04;98637.81;;;7.15;75.50
72892;BME280;61032;50.782;6.818;2024-02-26T00:38:04;98643.13;;;7.24;75.02
72892;BME280;61032;50.782;6.818;2024-02-26T00:39:05;98633.22;;;7.19;74.78
72892;BME280;61032;50.782;6.818;2024-02-26T00:40:06;98637.13;;;7.18;74.52
72892;BME280;61032;50.782;6.818;2024-02-26T00:41:07;98637.38;;;7.13;75.19
72892;BME280;61032;50.782;6.818;2024-02-26T00:42:07;98637.72;;;7.12;75.03
72892;BME280;61032;50.782;6.818;2024-02-26T00:43:08;98633.31;;;7.23;75.38
72892;BME280;61032;50.782;6.818;2024-02-26T00:44:08;98635.44;;;7.14;75.51
72892;BME280;61032;50.782;6.818;2024-02-26T00:45:08;98630.41;;;7.16;76.06
72892;BME280;61032;50.782;6.818;2024-02-26T00:46:09;98636.06;;;7.23;75.83
72892;BME280;61032;50.782;6.818;2024-02-26T00:47:09;98626.88;;;7.15;75.08
72892;BME280;61032;50.782;6.818;2024-02-26T00:48:09;98628.66;;;7.08;75.67
72892;BME280;61032;50.782;6.818;2024-02-26T00:49:10;98628.03;;;6.99;76.01
72892;BME280;61032;50.782;6.818;2024-02-26T00:50:10;98626.47;;;6.98;76.44
72892;BME280;61032;50.782;6.818;2024-02-26T00:51:11;98637.13;;;7.03;77.20
72892;BME280;61032;50.782;6.818;2024-02-26T00:52:11;98629.38;;;7.05;76.41
72892;BME280;61032;50.782;6.818;2024-02-26T00:53:11;98628.94;;;7.03;76.72
72892;BME280;61032;50.782;6.818;2024-02-26T00:54:12;98625.56;;;6.94;76.83
72892;BME280;61032;50.782;6.818;2024-02-26T00:55:12;98629.88;;;6.95;78.42
72892;BME280;61032;50.782;6.818;2024-02-26T00:56:12;98628.03;;;6.99;77.83
72892;BME280;61032;50.782;6.818;2024-02-26T00:57:13;98631.56;;;6.99;77.90
72892;BME280;61032;50.782;6.818;2024-02-26T00:58:13;98626.66;;;7.05;78.38
72892;BME280;61032;50.782;6.818;2024-02-26T00:59:14;98634.91;;;7.08;78.19
72892;BME280;61032;50.782;6.818;2024-02-26T01:00:14;98635.00;;;6.96;78.09
72892;BME280;61032;50.782;6.818;2024-02-26T01:01:15;98626.28;;;6.90;77.86
72892;BME280;61032;50.782;6.818;2024-02-26T01:02:15;98632.28;;;6.96;78.92
72892;BME280;61032;50.782;6.818;2024-02-26T01:03:17;98627.59;;;6.97;78.87
72892;BME280;61032;50.782;6.818;2024-02-26T01:04:17;98626.34;;;6.94;78.19
72892;BME280;61032;50.782;6.818;2024-02-26T01:05:18;98634.91;;;6.93;79.21
72892;BME280;61032;50.782;6.818;2024-02-26T01:06:18;98632.63;;;6.95;79.34
72892;BME280;61032;50.782;6.818;2024-02-26T01:07:19;98629.63;;;7.00;78.27
72892;BME280;61032;50.782;6.818;2024-02-26T01:08:19;98622.66;;;7.02;78.36
72892;BME280;61032;50.782;6.818;2024-02-26T01:09:20;98631.31;;;7.04;77.98
72892;BME280;61032;50.782;6.818;2024-02-26T01:10:20;98630.66;;;7.11;78.42
72892;BME280;61032;50.782;6.818;2024-02-26T01:11:20;98633.50;;;7.14;78.79
72892;BME280;61032;50.782;6.818;2024-02-26T01:12:21;98634.38;;;7.18;79.14
72892;BME280;61032;50.782;6.818;2024-02-26T01:13:21;98634.81;;;7.20;78.84
72892;BME280;61032;50.782;6.818;2024-02-26T01:14:22;98637.56;;;7.20;77.99
72892;BME280;61032;50.782;6.818;2024-02-26T01:15:22;98634.03;;;7.20;77.84
72892;BME280;61032;50.782;6.818;2024-02-26T01:16:24;98630.06;;;7.17;77.96
72892;BME280;61032;50.782;6.818;2024-02-26T01:17:24;98628.81;;;7.15;78.39
72892;BME280;61032;50.782;6.818;2024-02-26T01:18:24;98635.00;;;7.12;78.53
72892;BME280;61032;50.782;6.818;2024-02-26T01:19:25;98638.59;;;7.16;79.09
72892;BME280;61032;50.782;6.818;2024-02-26T01:20:25;98636.84;;;7.23;79.09
72892;BME280;61032;50.782;6.818;2024-02-26T01:21:25;98627.16;;;7.26;79.64
72892;BME280;61032;50.782;6.818;2024-02-26T01:22:29;98635.41;;;7.30;79.37
72892;BME280;61032;50.782;6.818;2024-02-26T01:23:29;98630.38;;;7.32;79.11
72892;BME280;61032;50.782;6.818;2024-02-26T01:24:29;98631.53;;;7.31;79.51
72892;BME280;61032;50.782;6.818;2024-02-26T01:25:30;98631.75;;;7.22;79.46
72892;BME280;61032;50.782;6.818;2024-02-26T01:26:30;98630.16;;;7.21;80.06
72892;BME280;61032;50.782;6.818;2024-02-26T01:27:31;98619.91;;;7.18;79.80
72892;BME280;61032;50.782;6.818;2024-02-26T01:28:31;98626.19;;;7.18;79.24
72892;BME280;61032;50.782;6.818;2024-02-26T01:29:32;98631.66;;;7.18;79.33
72892;BME280;61032;50.782;6.818;2024-02-26T01:30:32;98623.63;;;7.10;79.56
72892;BME280;61032;50.782;6.818;2024-02-26T01:31:32;98621.69;;;7.10;80.18
72892;BME280;61032;50.782;6.818;2024-02-26T01:32:33;98628.22;;;7.06;80.55
72892;BME280;61032;50.782;6.818;2024-02-26T01:33:33;98624.06;;;7.12;80.67
72892;BME280;61032;50.782;6.818;2024-02-26T01:34:33;98620.53;;;7.11;80.59
72892;BME280;61032;50.782;6.818;2024-02-26T01:35:34;98615.63;;;7.01;80.66
72892;BME280;61032;50.782;6.818;2024-02-26T01:36:34;98617.91;;;6.99;81.41
72892;BME280;61032;50.782;6.818;2024-02-26T01:37:36;98620.28;;;7.01;81.57
72892;BME280;61032;50.782;6.818;2024-02-26T01:38:36;98617.38;;;6.94;81.75
72892;BME280;61032;50.782;6.818;2024-02-26T01:39:37;98611.56;;;6.95;82.02
72892;BME280;61032;50.782;6.818;2024-02-26T01:40:37;98614.72;;;6.97;82.25
72892;BME280;61032;50.782;6.818;2024-02-26T01:41:40;98617.38;;;6.94;81.47
72892;BME280;61032;50.782;6.818;2024-02-26T01:42:40;98609.28;;;6.97;81.65
72892;BME280;61032;50.782;6.818;2024-02-26T01:43:42;98617.13;;;6.99;81.35
72892;BME280;61032;50.782;6.818;2024-02-26T01:44:42;98615.63;;;7.01;81.63
72892;BME280;61032;50.782;6.818;2024-02-26T01:45:42;98618.84;;;7.07;82.22
72892;BME280;61032;50.782;6.818;2024-02-26T01:46:43;98609.81;;;7.03;81.65
72892;BME280;61032;50.782;6.818;2024-02-26T01:47:43;98608.19;;;6.86;82.89
72892;BME280;61032;50.782;6.818;2024-02-26T01:48:44;98611.81;;;6.90;83.22
72892;BME280;61032;50.782;6.818;2024-02-26T01:49:46;98618.34;;;7.01;82.97
72892;BME280;61032;50.782;6.818;2024-02-26T01:50:46;98609.09;;;7.06;83.02
72892;BME280;61032;50.782;6.818;2024-02-26T01:51:47;98610.84;;;6.98;82.14
72892;BME280;61032;50.782;6.818;2024-02-26T01:52:49;98603.09;;;7.00;83.04
72892;BME280;61032;50.782;6.818;2024-02-26T01:53:50;98599.72;;;7.07;82.99
72892;BME280;61032;50.782;6.818;2024-02-26T01:54:51;98605.63;;;7.09;83.25
72892;BME280;61032;50.782;6.818;2024-02-26T01:55:51;98602.66;;;6.98;82.13
72892;BME280;61032;50.782;6.818;2024-02-26T01:56:52;98603.09;;;7.00;82.79
72892;BME280;61032;50.782;6.818;2024-02-26T01:57:52;98601.63;;;7.03;82.57
72892;BME280;61032;50.782;6.818;2024-02-26T01:58:54;98604.41;;;6.90;82.67
72892;BME280;61032;50.782;6.818;2024-02-26T01:59:55;98606.19;;;6.99;82.90
72892;BME280;61032;50.782;6.818;2024-02-26T02:00:56;98608.91;;;6.99;82.72
72892;BME280;61032;50.782;6.818;2024-02-26T02:01:58;98604.59;;;6.98;82.30
72892;BME280;61032;50.782;6.818;2024-02-26T02:03:02;98606.91;;;6.96;83.28
72892;BME280;61032;50.782;6.818;2024-02-26T02:04:03;98601.19;;;6.85;83.29
72892;BME280;61032;50.782;6.818;2024-02-26T02:05:05;98599.31;;;6.89;83.74
72892;BME280;61032;50.782;6.818;2024-02-26T02:06:07;98598.06;;;6.86;83.58
72892;BME280;61032;50.782;6.818;2024-02-26T02:07:07;98604.69;;;6.85;83.58
72892;BME280;61032;50.782;6.818;2024-02-26T02:08:10;98596.50;;;6.85;83.93
72892;BME280;61032;50.782;6.818;2024-02-26T02:09:11;98606.09;;;6.95;83.71
72892;BME280;61032;50.782;6.818;2024-02-26T02:10:12;98604.16;;;6.96;83.26
72892;BME280;61032;50.782;6.818;2024-02-26T02:11:13;98607.06;;;7.03;83.33
72892;BME280;61032;50.782;6.818;2024-02-26T02:12:15;98604.16;;;6.96;82.68
72892;BME280;61032;50.782;6.818;2024-02-26T02:13:15;98598.25;;;6.94;83.30
72892;BME280;61032;50.782;6.818;2024-02-26T02:14:15;98601.53;;;6.99;83.24
72892;BME280;61032;50.782;6.818;2024-02-26T02:15:16;98598.88;;;7.03;83.23
72892;BME280;61032;50.782;6.818;2024-02-26T02:16:17;98600.81;;;7.02;83.30
72892;BME280;61032;50.782;6.818;2024-02-26T02:17:17;98605.56;;;7.05;82.97
72892;BME280;61032;50.782;6.818;2024-02-26T02:18:17;98595.44;;;7.06;82.84
72892;BME280;61032;50.782;6.818;2024-02-26T02:19:19;98599.94;;;6.98;82.97
72892;BME280;61032;50.782;6.818;2024-02-26T02:20:24;98603.00;;;6.97;83.39
72892;BME280;61032;50.782;6.818;2024-02-26T02:21:25;98603.81;;;6.97;83.23
72892;BME280;61032;50.782;6.818;2024-02-26T02:22:25;98604.69;;;7.01;83.67
72892;BME280;61032;50.782;6.818;2024-02-26T02:23:25;98602.31;;;7.00;83.88
72892;BME280;61032;50.782;6.818;2024-02-26T02:24:26;98599.41;;;6.93;83.37
72892;BME280;61032;50.782;6.818;2024-02-26T02:25:26;98593.25;;;6.80;84.46
72892;BME280;61032;50.782;6.818;2024-02-26T02:26:27;98601.53;;;6.83;83.76
72892;BME280;61032;50.782;6.818;2024-02-26T02:27:28;98599.66;;;6.87;84.41
72892;BME280;61032;50.782;6.818;2024-02-26T02:28:30;98590.31;;;6.88;84.42
72892;BME280;61032;50.782;6.818;2024-02-26T02:29:30;98593.41;;;6.87;84.64
72892;BME280;61032;50.782;6.818;2024-02-26T02:30:31;98599.50;;;6.80;84.19
72892;BME280;61032;50.782;6.818;2024-02-26T02:31:33;98597.91;;;6.79;85.32
72892;BME280;61032;50.782;6.818;2024-02-26T02:32:36;98594.47;;;6.82;85.03
72892;BME280;61032;50.782;6.818;2024-02-26T02:33:38;98592.59;;;6.86;84.88
72892;BME280;61032;50.782;6.818;2024-02-26T02:34:38;98594.47;;;6.82;84.49
72892;BME280;61032;50.782;6.818;2024-02-26T02:35:39;98594.63;;;6.89;84.72
72892;BME280;61032;50.782;6.818;2024-02-26T02:36:57;98588.03;;;6.90;84.01
72892;BME280;61032;50.782;6.818;2024-02-26T02:37:57;98599.13;;;6.98;84.21
72892;BME280;61032;50.782;6.818;2024-02-26T02:38:58;98590.25;;;7.01;84.58
72892;BME280;61032;50.782;6.818;2024-02-26T02:39:59;98599.03;;;6.94;84.40
72892;BME280;61032;50.782;6.818;2024-02-26T02:41:00;98600.63;;;6.95;84.43
72892;BME280;61032;50.782;6.818;2024-02-26T02:42:00;98595.16;;;6.95;84.73
72892;BME280;61032;50.782;6.818;2024-02-26T02:43:00;98602.91;;;6.93;83.75
72892;BME280;61032;50.782;6.818;2024-02-26T02:44:02;98602.31;;;7.00;84.24
72892;BME280;61032;50.782;6.818;2024-02-26T02:45:02;98601.53;;;6.99;84.13
72892;BME280;61032;50.782;6.818;2024-02-26T02:46:03;98602.13;;;6.93;83.37
72892;BME280;61032;50.782;6.818;2024-02-26T02:47:03;98593.03;;;6.88;84.62
72892;BME280;61032;50.782;6.818;2024-02-26T02:48:04;98593.00;;;6.85;84.34
72892;BME280;61032;50.782;6.818;2024-02-26T02:49:08;98601.25;;;6.88;84.28
72892;BME280;61032;50.782;6.818;2024-02-26T02:50:09;98609.88;;;6.90;83.97
72892;BME280;61032;50.782;6.818;2024-02-26T02:51:10;98610.84;;;6.98;84.05
72892;BME280;61032;50.782;6.818;2024-02-26T02:52:10;98602.31;;;7.00;83.65
72892;BME280;61032;50.782;6.818;2024-02-26T02:53:11;98609.91;;;7.06;83.42
72892;BME280;61032;50.782;6.818;2024-02-26T02:54:11;98615.97;;;7.00;83.08
72892;BME280;61032;50.782;6.818;2024-02-26T02:55:12;98616.13;;;7.07;83.68
72892;BME280;61032;50.782;6.818;2024-02-26T02:56:13;98614.63;;;7.09;83.15
72892;BME280;61032;50.782;6.818;2024-02-26T02:57:13;98609.97;;;7.10;82.84
72892;BME280;61032;50.782;6.818;2024-02-26T02:58:14;98624.84;;;7.12;83.01
72892;BME280;61032;50.782;6.818;2024-02-26T02:59:14;98625.38;;;7.18;82.98
72892;BME280;61032;50.782;6.818;2024-02-26T03:00:15;98620.63;;;7.15;82.71
72892;BME280;61032;50.782;6.818;2024-02-26T03:01:15;98622.91;;;7.13;82.40
72892;BME280;61032;50.782;6.818;2024-02-26T03:02:15;98616.66;;;7.12;83.25
72892;BME280;61032;50.782;6.818;2024-02-26T03:03:16;98617.38;;;7.09;82.97
72892;BME280;61032;50.782;6.818;2024-02-26T03:04:16;98614.81;;;7.01;82.67
72892;BME280;61032;50.782;6.818;2024-02-26T03:05:17;98609.09;;;7.06;83.54
72892;BME280;61032;50.782;6.818;2024-02-26T03:06:17;98614.47;;;7.02;84.02
72892;BME280;61032;50.782;6.818;2024-02-26T03:07:18;98616.41;;;7.02;84.19
72892;BME280;61032;50.782;6.818;2024-02-26T03:08:18;98619.50;;;7.00;84.08
72892;BME280;61032;50.782;6.818;2024-02-26T03:09:19;98615.53;;;6.98;83.71
72892;BME280;61032;50.782;6.818;2024-02-26T03:10:19;98616.41;;;7.02;83.67
72892;BME280;61032;50.782;6.818;2024-02-26T03:11:20;98614.81;;;7.01;83.82
72892;BME280;61032;50.782;6.818;2024-02-26T03:12:20;98611.03;;;7.05;83.93
72892;BME280;61032;50.782;6.818;2024-02-26T03:13:21;98601.63;;;7.03;84.25
72892;BME280;61032;50.782;6.818;2024-02-26T03:14:21;98599.41;;;6.93;85.07
72892;BME280;61032;50.782;6.818;2024-02-26T03:15:22;98600.19;;;6.93;84.52
72892;BME280;61032;50.782;6.818;2024-02-26T03:16:22;98604.06;;;6.92;85.02
72892;BME280;61032;50.782;6.818;2024-02-26T03:17:22;98603.72;;;6.94;84.68
72892;BME280;61032;50.782;6.818;2024-02-26T03:18:24;98604.59;;;6.98;84.60
72892;BME280;61032;50.782;6.818;2024-02-26T03:19:24;98595.34;;;7.02;84.91
72892;BME280;61032;50.782;6.818;2024-02-26T03:20:25;98596.06;;;6.99;84.49
72892;BME280;61032;50.782;6.818;2024-02-26T03:21:27;98602.31;;;7.00;85.13
72892;BME280;61032;50.782;6.818;2024-02-26T03:22:27;98598.34;;;6.97;84.85
72892;BME280;61032;50.782;6.818;2024-02-26T03:23:27;98598.69;;;6.96;84.61
72892;BME280;61032;50.782;6.818;2024-02-26T03:24:28;98599.41;;;6.93;84.93
72892;BME280;61032;50.782;6.818;2024-02-26T03:25:28;98600.72;;;6.99;84.79
72892;BME280;61032;50.782;6.818;2024-02-26T03:26:28;98598.97;;;7.06;85.31
72892;BME280;61032;50.782;6.818;2024-02-26T03:27:31;98603.66;;;7.06;84.59
72892;BME280;61032;50.782;6.818;2024-02-26T03:28:31;98599.38;;;7.08;84.82
72892;BME280;61032;50.782;6.818;2024-02-26T03:29:35;98597.44;;;7.09;84.79
72892;BME280;61032;50.782;6.818;2024-02-26T03:30:36;98604.78;;;7.05;84.43
72892;BME280;61032;50.782;6.818;2024-02-26T03:31:36;98596.25;;;7.06;84.63
72892;BME280;61032;50.782;6.818;2024-02-26T03:32:37;98597.19;;;7.14;84.93
72892;BME280;61032;50.782;6.818;2024-02-26T03:33:37;98599.72;;;7.07;84.17
72892;BME280;61032;50.782;6.818;2024-02-26T03:34:37;98601.78;;;6.94;84.54
72892;BME280;61032;50.782;6.818;2024-02-26T03:35:40;98604.84;;;6.93;84.88
72892;BME280;61032;50.782;6.818;2024-02-26T03:36:41;98607.59;;;6.93;85.35
72892;BME280;61032;50.782;6.818;2024-02-26T03:37:41;98599.03;;;6.94;85.55
72892;BME280;61032;50.782;6.818;2024-02-26T03:38:42;98601.88;;;6.98;85.67
72892;BME280;61032;50.782;6.818;2024-02-26T03:39:42;98606.97;;;6.99;85.61
72892;BME280;61032;50.782;6.818;2024-02-26T03:40:43;98603.09;;;7.00;85.88
72892;BME280;61032;50.782;6.818;2024-02-26T03:41:43;98596.16;;;7.03;85.35
72892;BME280;61032;50.782;6.818;2024-02-26T03:42:44;98613.41;;;7.07;85.61
72892;BME280;61032;50.782;6.818;2024-02-26T03:43:44;98598.53;;;7.04;85.63
72892;BME280;61032;50.782;6.818;2024-02-26T03:44:45;98602.22;;;6.96;85.70
72892;BME280;61032;50.782;6.818;2024-02-26T03:45:46;98603.97;;;6.88;85.27
72892;BME280;61032;50.782;6.818;2024-02-26T03:46:46;98602.31;;;6.84;86.56
72892;BME280;61032;50.782;6.818;2024-02-26T03:47:47;98600.75;;;6.83;86.15
72892;BME280;61032;50.782;6.818;2024-02-26T03:48:47;98605.66;;;6.77;86.89
72892;BME280;61032;50.782;6.818;2024-02-26T03:49:47;98602.47;;;6.75;86.96
72892;BME280;61032;50.782;6.818;2024-02-26T03:50:48;98600.66;;;6.79;86.90
72892;BME280;61032;50.782;6.818;2024-02-26T03:51:48;98603.38;;;6.79;86.98
72892;BME280;61032;50.782;6.818;2024-02-26T03:52:49;98604.06;;;6.76;86.89
72892;BME280;61032;50.782;6.818;2024-02-26T03:53:49;98606.09;;;6.79;86.77
72892;BME280;61032;50.782;6.818;2024-02-26T03:54:49;98607.00;;;6.83;87.23
72892;BME280;61032;50.782;6.818;2024-02-26T03:55:50;98606.81;;;6.76;86.86
72892;BME280;61032;50.782;6.818;2024-02-26T03:56:52;98613.59;;;6.82;87.19
72892;BME280;61032;50.782;6.818;2024-02-26T03:57:52;98618.34;;;6.85;86.96
72892;BME280;61032;50.782;6.818;2024-02-26T03:58:53;98620.00;;;6.90;87.20
72892;BME280;61032;50.782;6.818;2024-02-26T03:59:53;98618.53;;;6.93;87.16
72892;BME280;61032;50.782;6.818;2024-02-26T04:00:54;98625.56;;;6.94;86.68
72892;BME280;61032;50.782;6.818;2024-02-26T04:01:54;98625.56;;;6.94;87.26
72892;BME280;61032;50.782;6.818;2024-02-26T04:02:55;98631.56;;;6.99;87.07
72892;BME280;61032;50.782;6.818;2024-02-26T04:03:55;98628.84;;;6.99;87.11
72892;BME280;61032;50.782;6.818;2024-02-26T04:04:55;98624.53;;;6.98;87.02
72892;BME280;61032;50.782;6.818;2024-02-26T04:05:56;98630.88;;;7.02;86.80
72892;BME280;61032;50.782;6.818;2024-02-26T04:06:56;98630.88;;;7.02;86.53
72892;BME280;61032;50.782;6.818;2024-02-26T04:07:56;98632.50;;;7.07;86.58
72892;BME280;61032;50.782;6.818;2024-02-26T04:08:57;98632.97;;;7.09;86.77
72892;BME280;61032;50.782;6.818;2024-02-26T04:09:57;98629.09;;;7.10;86.90
72892;BME280;61032;50.782;6.818;2024-02-26T04:10:58;98636.44;;;7.06;86.64
72892;BME280;61032;50.782;6.818;2024-02-26T04:11:58;98640.56;;;7.00;86.40
72892;BME280;61032;50.782;6.818;2024-02-26T04:12:59;98634.31;;;6.99;86.99
72892;BME280;61032;50.782;6.818;2024-02-26T04:13:59;98636.69;;;7.01;87.20
72892;BME280;61032;50.782;6.818;2024-02-26T04:14:59;98641.34;;;7.00;86.33
72892;BME280;61032;50.782;6.818;2024-02-26T04:16:00;98640.56;;;7.00;86.63
72892;BME280;61032;50.782;6.818;2024-02-26T04:17:02;98637.03;;;6.99;87.22
72892;BME280;61032;50.782;6.818;2024-02-26T04:18:03;98637.91;;;7.03;87.20
72892;BME280;61032;50.782;6.818;2024-02-26T04:19:03;98641.34;;;7.00;87.11
72892;BME280;61032;50.782;6.818;2024-02-26T04:20:04;98638.34;;;6.89;86.90
72892;BME280;61032;50.782;6.818;2024-02-26T04:21:05;98631.63;;;6.87;86.84
72892;BME280;61032;50.782;6.818;2024-02-26T04:22:07;98639.91;;;6.90;87.47
72892;BME280;61032;50.782;6.818;2024-02-26T04:23:07;98631.03;;;6.94;87.71
72892;BME280;61032;50.782;6.818;2024-02-26T04:24:08;98637.28;;;6.94;87.47
72892;BME280;61032;50.782;6.818;2024-02-26T04:25:08;98631.91;;;6.98;87.32
72892;BME280;61032;50.782;6.818;2024-02-26T04:26:09;98635.78;;;6.97;87.64
72892;BME280;61032;50.782;6.818;2024-02-26T04:27:09;98637.81;;;7.00;87.67
72892;BME280;61032;50.782;6.818;2024-02-26T04:28:10;98636.31;;;6.86;87.56
72892;BME280;61032;50.782;6.818;2024-02-26T04:29:10;98630.44;;;6.84;87.44
72892;BME280;61032;50.782;6.818;2024-02-26T04:30:11;98627.06;;;6.91;87.76
72892;BME280;61032;50.782;6.818;2024-02-26T04:31:11;98630.78;;;6.99;88.17
72892;BME280;61032;50.782;6.818;2024-02-26T04:32:12;98633.41;;;6.95;87.96
72892;BME280;61032;50.782;6.818;2024-02-26T04:33:12;98629.63;;;7.00;88.19
72892;BME280;61032;50.782;6.818;2024-02-26T04:34:12;98625.66;;;6.97;88.33
72892;BME280;61032;50.782;6.818;2024-02-26T04:35:13;98619.66;;;6.92;87.93
72892;BME280;61032;50.782;6.818;2024-02-26T04:36:14;98629.88;;;6.95;87.72
72892;BME280;61032;50.782;6.818;2024-02-26T04:37:17;98635.88;;;6.84;87.67
72892;BME280;61032;50.782;6.818;2024-02-26T04:38:18;98631.81;;;6.94;88.73
72892;BME280;61032;50.782;6.818;2024-02-26T04:39:18;98625.56;;;6.94;88.88
72892;BME280;61032;50.782;6.818;2024-02-26T04:40:18;98626.09;;;6.83;88.43
72892;BME280;61032;50.782;6.818;2024-02-26T04:41:19;98625.38;;;6.86;88.86
72892;BME280;61032;50.782;6.818;2024-02-26T04:42:19;98628.66;;;6.76;89.40
72892;BME280;61032;50.782;6.818;2024-02-26T04:43:19;98631.56;;;6.83;89.35
72892;BME280;61032;50.782;6.818;2024-02-26T04:44:20;98626.97;;;6.87;89.57
72892;BME280;61032;50.782;6.818;2024-02-26T04:45:20;98631.72;;;6.90;89.09
72892;BME280;61032;50.782;6.818;2024-02-26T04:46:21;98629.69;;;6.87;89.01
72892;BME280;61032;50.782;6.818;2024-02-26T04:47:24;98632.28;;;6.96;89.00
72892;BME280;61032;50.782;6.818;2024-02-26T04:48:24;98631.47;;;6.96;88.95
72892;BME280;61032;50.782;6.818;2024-02-26T04:49:25;98632.63;;;6.95;88.53
72892;BME280;61032;50.782;6.818;2024-02-26T04:50:25;98630.69;;;6.95;88.51
72892;BME280;61032;50.782;6.818;2024-02-26T04:51:25;98632.97;;;6.93;88.77
72892;BME280;61032;50.782;6.818;2024-02-26T04:52:26;98636.75;;;6.88;88.03
72892;BME280;61032;50.782;6.818;2024-02-26T04:53:26;98629.28;;;6.85;88.85
72892;BME280;61032;50.782;6.818;2024-02-26T04:54:27;98628.91;;;6.87;88.63
72892;BME280;61032;50.782;6.818;2024-02-26T04:55:27;98628.50;;;6.85;88.90
72892;BME280;61032;50.782;6.818;2024-02-26T04:56:27;98630.94;;;6.90;89.58
72892;BME280;61032;50.782;6.818;2024-02-26T04:57:28;98629.88;;;6.95;89.30
72892;BME280;61032;50.782;6.818;2024-02-26T04:58:28;98633.75;;;6.94;89.69
72892;BME280;61032;50.782;6.818;2024-02-26T04:59:29;98632.28;;;6.96;89.43
72892;BME280;61032;50.782;6.818;2024-02-26T05:00:30;98628.75;;;6.96;89.68
72892;BME280;61032;50.782;6.818;2024-02-26T05:01:30;98630.69;;;6.95;89.09
72892;BME280;61032;50.782;6.818;2024-02-26T05:02:31;98632.53;;;6.91;89.36
72892;BME280;61032;50.782;6.818;2024-02-26T05:03:33;98636.59;;;6.97;89.50
72892;BME280;61032;50.782;6.818;2024-02-26T05:04:33;98634.56;;;6.94;89.55
72892;BME280;61032;50.782;6.818;2024-02-26T05:05:34;98631.47;;;6.96;89.26
72892;BME280;61032;50.782;6.818;2024-02-26T05:06:36;98629.63;;;6.84;89.30
72892;BME280;61032;50.782;6.818;2024-02-26T05:07:40;98632.72;;;6.82;89.79
72892;BME280;61032;50.782;6.818;2024-02-26T05:08:42;98629.09;;;6.78;90.26
72892;BME280;61032;50.782;6.818;2024-02-26T05:09:44;98623.63;;;6.78;89.93
72892;BME280;61032;50.782;6.818;2024-02-26T05:10:45;98633.47;;;6.67;90.63
72892;BME280;61032;50.782;6.818;2024-02-26T05:11:45;98629.59;;;6.68;91.37
72892;BME280;61032;50.782;6.818;2024-02-26T05:12:46;98631.03;;;6.62;91.41
72892;BME280;61032;50.782;6.818;2024-02-26T05:13:47;98633.09;;;6.53;91.99
72892;BME280;61032;50.782;6.818;2024-02-26T05:14:48;98627.66;;;6.53;92.45
72892;BME280;61032;50.782;6.818;2024-02-26T05:15:48;98629.47;;;6.49;92.89
72892;BME280;61032;50.782;6.818;2024-02-26T05:16:52;98625.50;;;6.46;92.62
72892;BME280;61032;50.782;6.818;2024-02-26T05:17:52;98625.25;;;6.51;93.27
72892;BME280;61032;50.782;6.818;2024-02-26T05:18:53;98623.78;;;6.54;93.08
72892;BME280;61032;50.782;6.818;2024-02-26T05:19:53;98635.34;;;6.63;93.12
72892;BME280;61032;50.782;6.818;2024-02-26T05:20:54;98623.88;;;6.58;92.35
72892;BME280;61032;50.782;6.818;2024-02-26T05:21:54;98629.16;;;6.66;93.02
72892;BME280;61032;50.782;6.818;2024-02-26T05:22:55;98628.72;;;6.64;92.85
72892;BME280;61032;50.782;6.818;2024-02-26T05:23:55;98624.13;;;6.68;92.90
72892;BME280;61032;50.782;6.818;2024-02-26T05:24:55;98632.53;;;6.75;92.70
72892;BME280;61032;50.782;6.818;2024-02-26T05:25:56;98635.50;;;6.70;92.42